Time;durP1;ratioP1;P1;durP2;ratioP2;P2;SDS_P1;SDS_P2;PMS_P1;PMS_P2;Temp;Humidity;BMP_temperature;BMP_pressure;BME280_temperature;BME280_humidity;BME280_pressure;Samples;Min_cycle;Max_cycle;Signal;HPM_P1;HPM_P2
2022/03/27 00:01:24;;;;;;;10.10;6.90;;;;;;;;;;5101556;27;20576;-74
2022/03/27 00:03:50;;;;;;;8.87;6.57;;;;;;;;;;5118249;27;20641;-74
2022/03/27 00:06:16;;;;;;;8.43;6.37;;;;;;;;;;5118701;27;20174;-74
2022/03/27 00:08:42;;;;;;;10.20;6.43;;;;;;;;;;5101666;27;20174;-74
2022/03/27 00:13:53;;;;;;;7.07;6.07;;;;;;;;;;5121493;27;20174;-74
2022/03/27 00:16:20;;;;;;;8.07;6.43;;;;;;;;;;5118133;27;20197;-74
2022/03/27 00:18:46;;;;;;;9.20;6.50;;;;;;;;;;5118395;27;20274;-74
2022/03/27 00:21:13;;;;;;;7.83;6.00;;;;;;;;;;5101384;27;20211;-74
2022/03/27 00:23:39;;;;;;;8.93;6.57;;;;;;;;;;5101098;27;20182;-74
2022/03/27 00:26:06;;;;;;;9.77;6.53;;;;;;;;;;5101275;27;20201;-74
2022/03/27 00:28:32;;;;;;;10.17;7.17;;;;;;;;;;5136451;27;20178;-74
2022/03/27 00:31:02;;;;;;;9.27;6.60;;;;;;;;;;5100904;27;20210;-74
2022/03/27 00:33:28;;;;;;;8.90;6.60;;;;;;;;;;5101148;27;20187;-74
2022/03/27 00:35:55;;;;;;;10.47;6.90;;;;;;;;;;5100955;27;20731;-74
2022/03/27 00:38:21;;;;;;;8.67;5.87;;;;;;;;;;5111722;27;20184;-74
2022/03/27 00:40:49;;;;;;;7.30;5.70;;;;;;;;;;5135843;27;20207;-74
2022/03/27 00:43:15;;;;;;;9.47;7.13;;;;;;;;;;5117660;27;20177;-74
2022/03/27 00:45:42;;;;;;;9.00;6.30;;;;;;;;;;5100796;27;20178;-74
2022/03/27 00:48:08;;;;;;;11.60;6.50;;;;;;;;;;5117864;27;20182;-74
2022/03/27 00:50:34;;;;;;;8.87;6.20;;;;;;;;;;5117790;27;20182;-74
2022/03/27 00:53:00;;;;;;;10.03;6.33;;;;;;;;;;5117525;27;20213;-74
2022/03/27 00:55:27;;;;;;;7.13;5.90;;;;;;;;;;5135862;27;20252;-74
2022/03/27 00:57:53;;;;;;;9.23;6.53;;;;;;;;;;5117364;27;20623;-74
2022/03/27 01:00:36;;;;;;;9.30;6.80;;;;;;;;;;5117355;27;20552;-74
2022/03/27 01:03:04;;;;;;;8.20;6.50;;;;;;;;;;5135588;27;20154;-74
2022/03/27 01:05:31;;;;;;;9.83;6.93;;;;;;;;;;5117453;27;20255;-74
2022/03/27 01:07:57;;;;;;;9.20;6.50;;;;;;;;;;5100295;27;20188;-74
2022/03/27 01:10:25;;;;;;;8.33;6.20;;;;;;;;;;5100201;27;20608;-74
2022/03/27 01:12:54;;;;;;;9.27;6.00;;;;;;;;;;5099970;27;20550;-74
2022/03/27 01:15:34;;;;;;;8.50;6.30;;;;;;;;;;5117907;27;20177;-74
2022/03/27 01:18:00;;;;;;;9.03;6.43;;;;;;;;;;5117292;27;20591;-74
2022/03/27 01:20:33;;;;;;;8.37;6.87;;;;;;;;;;5100215;27;20639;-74
2022/03/27 01:23:00;;;;;;;11.27;6.40;;;;;;;;;;5116858;27;20182;-74
2022/03/27 01:25:26;;;;;;;9.33;7.00;;;;;;;;;;5117203;27;20212;-74
2022/03/27 01:27:52;;;;;;;9.30;5.93;;;;;;;;;;5100024;27;20193;-74
2022/03/27 01:30:18;;;;;;;9.43;6.23;;;;;;;;;;5135058;27;20637;-74
2022/03/27 01:32:45;;;;;;;8.70;6.00;;;;;;;;;;5099745;27;20253;-74
2022/03/27 01:35:12;;;;;;;8.00;6.20;;;;;;;;;;5116717;27;20186;-74
2022/03/27 01:37:38;;;;;;;8.47;6.27;;;;;;;;;;5116049;28;20189;-74
2022/03/27 01:40:05;;;;;;;9.63;6.00;;;;;;;;;;5099520;27;20205;-74
2022/03/27 01:42:31;;;;;;;9.70;6.47;;;;;;;;;;5134659;27;20673;-74
2022/03/27 01:44:57;;;;;;;9.33;6.20;;;;;;;;;;5099461;27;20177;-74
2022/03/27 01:47:23;;;;;;;7.43;5.77;;;;;;;;;;5116408;27;20173;-74
2022/03/27 01:49:49;;;;;;;8.30;6.30;;;;;;;;;;5116575;27;20166;-74
2022/03/27 01:52:16;;;;;;;10.07;6.27;;;;;;;;;;5099122;27;20205;-74
2022/03/27 01:54:42;;;;;;;8.60;6.47;;;;;;;;;;5116152;27;20257;-74
2022/03/27 01:57:08;;;;;;;10.23;6.43;;;;;;;;;;5099356;27;20281;-74
2022/03/27 01:59:35;;;;;;;8.43;6.40;;;;;;;;;;5099633;27;20182;-74
2022/03/27 02:02:01;;;;;;;8.73;6.77;;;;;;;;;;5115755;27;20232;-74
2022/03/27 02:04:27;;;;;;;9.37;6.33;;;;;;;;;;5099139;27;20192;-74
2022/03/27 02:06:53;;;;;;;9.53;6.50;;;;;;;;;;5116018;27;20520;-74
2022/03/27 02:09:19;;;;;;;8.70;6.40;;;;;;;;;;5099003;27;20207;-74
2022/03/27 02:11:45;;;;;;;9.53;6.70;;;;;;;;;;5115687;27;20295;-74
2022/03/27 02:14:11;;;;;;;9.03;6.23;;;;;;;;;;5099502;27;20191;-74
2022/03/27 02:16:38;;;;;;;9.70;6.33;;;;;;;;;;5099238;27;20589;-74
2022/03/27 02:19:09;;;;;;;7.73;5.80;;;;;;;;;;5115767;27;20186;-74
2022/03/27 02:21:36;;;;;;;8.93;6.53;;;;;;;;;;5133862;27;20661;-74
2022/03/27 02:24:05;;;;;;;9.97;6.70;;;;;;;;;;5115998;27;20173;-74
2022/03/27 02:26:32;;;;;;;10.80;7.00;;;;;;;;;;5115699;27;20204;-74
2022/03/27 02:28:58;;;;;;;9.83;6.90;;;;;;;;;;5115654;27;20185;-74
2022/03/27 02:31:24;;;;;;;10.20;6.57;;;;;;;;;;5123171;22;20280;-76
2022/03/27 02:33:50;;;;;;;9.63;6.60;;;;;;;;;;5054380;28;20171;-75
2022/03/27 02:36:16;;;;;;;9.27;6.57;;;;;;;;;;5054651;28;20174;-75
2022/03/27 02:38:43;;;;;;;7.93;5.93;;;;;;;;;;5054767;28;20273;-75
2022/03/27 02:41:09;;;;;;;11.20;6.63;;;;;;;;;;5072564;28;20234;-75
2022/03/27 02:43:38;;;;;;;9.47;6.80;;;;;;;;;;5054650;28;20667;-75
2022/03/27 02:46:05;;;;;;;11.47;6.23;;;;;;;;;;5072735;28;20167;-75
2022/03/27 02:48:31;;;;;;;11.10;6.80;;;;;;;;;;5072919;28;20170;-75
2022/03/27 02:50:57;;;;;;;9.27;6.43;;;;;;;;;;5070479;28;20177;-75
2022/03/27 02:53:23;;;;;;;13.40;7.37;;;;;;;;;;5071252;28;20177;-75
2022/03/27 02:55:49;;;;;;;10.07;6.70;;;;;;;;;;5071605;28;20174;-75
2022/03/27 02:58:15;;;;;;;9.37;6.77;;;;;;;;;;5071563;28;20269;-75
2022/03/27 03:00:42;;;;;;;11.00;6.63;;;;;;;;;;5072532;28;20200;-75
2022/03/27 03:03:12;;;;;;;8.80;6.50;;;;;;;;;;5071267;28;20228;-75
2022/03/27 03:05:39;;;;;;;10.13;6.50;;;;;;;;;;5071173;28;20563;-75
2022/03/27 03:08:06;;;;;;;10.37;7.03;;;;;;;;;;5071326;28;20587;-75
2022/03/27 03:10:33;;;;;;;10.47;6.33;;;;;;;;;;5072427;28;20539;-74
2022/03/27 03:12:59;;;;;;;9.67;6.73;;;;;;;;;;5071170;28;20234;-75
2022/03/27 03:15:26;;;;;;;10.47;6.80;;;;;;;;;;5054696;28;20184;-75
2022/03/27 03:17:52;;;;;;;9.73;7.00;;;;;;;;;;5054806;28;20274;-75
2022/03/27 03:20:19;;;;;;;9.97;6.43;;;;;;;;;;5071340;28;20211;-74
2022/03/27 03:22:45;;;;;;;10.50;7.00;;;;;;;;;;5071159;28;20190;-75
2022/03/27 03:25:11;;;;;;;11.27;7.17;;;;;;;;;;5071270;28;20179;-75
2022/03/27 03:27:37;;;;;;;10.70;6.73;;;;;;;;;;5071363;28;20628;-75
2022/03/27 03:30:05;;;;;;;10.47;6.63;;;;;;;;;;5071007;28;20174;-75
2022/03/27 03:32:31;;;;;;;10.53;7.27;;;;;;;;;;5070729;28;20220;-74
2022/03/27 03:34:57;;;;;;;11.37;6.37;;;;;;;;;;5054289;28;20185;-75
2022/03/27 03:37:23;;;;;;;9.67;6.80;;;;;;;;;;5071212;28;20181;-75
2022/03/27 03:39:49;;;;;;;10.43;6.90;;;;;;;;;;5054354;28;20588;-74
2022/03/27 03:42:15;;;;;;;11.30;7.33;;;;;;;;;;5070950;28;20189;-74
2022/03/27 03:44:43;;;;;;;9.07;6.93;;;;;;;;;;5070839;28;20314;-75
2022/03/27 03:47:09;;;;;;;12.90;8.17;;;;;;;;;;5070877;28;20639;-75
2022/03/27 03:49:35;;;;;;;11.17;8.43;;;;;;;;;;5071034;28;20197;-74
2022/03/27 03:52:01;;;;;;;10.77;7.50;;;;;;;;;;5053735;28;20211;-75
2022/03/27 03:57:31;;;;;;;11.17;7.67;;;;;;;;;;5072052;28;20159;-75
2022/03/27 03:59:58;;;;;;;13.30;7.80;;;;;;;;;;5071862;28;20275;-74
2022/03/27 04:02:24;;;;;;;10.93;7.90;;;;;;;;;;5072993;28;20670;-74
2022/03/27 04:04:50;;;;;;;13.20;8.10;;;;;;;;;;5075502;28;20627;-74
2022/03/27 04:07:17;;;;;;;10.67;8.37;;;;;;;;;;5074689;28;20172;-74
2022/03/27 04:09:43;;;;;;;12.40;7.87;;;;;;;;;;5057910;28;20666;-74
2022/03/27 04:12:09;;;;;;;9.60;7.17;;;;;;;;;;5074120;28;20611;-75
2022/03/27 04:14:36;;;;;;;10.67;7.00;;;;;;;;;;5074354;28;20172;-75
2022/03/27 04:17:03;;;;;;;11.07;7.37;;;;;;;;;;5057746;28;20260;-75
2022/03/27 04:19:29;;;;;;;12.90;7.67;;;;;;;;;;5075370;28;20177;-74
2022/03/27 04:21:56;;;;;;;10.97;7.67;;;;;;;;;;5073707;28;20216;-75
2022/03/27 04:24:22;;;;;;;11.23;7.40;;;;;;;;;;5057350;28;20273;-75
2022/03/27 04:26:48;;;;;;;11.60;8.10;;;;;;;;;;5074228;28;20180;-75
2022/03/27 04:29:14;;;;;;;12.27;8.07;;;;;;;;;;5057696;28;20173;-75
2022/03/27 04:31:40;;;;;;;12.23;8.30;;;;;;;;;;5073626;28;20273;-75
2022/03/27 04:34:07;;;;;;;11.50;7.90;;;;;;;;;;5073791;28;20177;-74
2022/03/27 04:36:33;;;;;;;11.07;8.10;;;;;;;;;;5075027;28;20180;-75
2022/03/27 04:39:00;;;;;;;13.37;8.07;;;;;;;;;;5054924;28;20244;-75
2022/03/27 04:41:26;;;;;;;12.00;8.13;;;;;;;;;;5073379;28;20248;-75
2022/03/27 04:43:52;;;;;;;11.47;7.57;;;;;;;;;;5073967;28;20268;-75
2022/03/27 04:46:18;;;;;;;12.87;7.70;;;;;;;;;;5073640;28;20180;-74
2022/03/27 04:48:45;;;;;;;11.73;7.67;;;;;;;;;;5073825;28;20176;-74
2022/03/27 04:51:12;;;;;;;10.03;7.23;;;;;;;;;;5073799;28;20204;-75
2022/03/27 04:53:38;;;;;;;12.93;7.80;;;;;;;;;;5073711;28;20177;-74
2022/03/27 04:56:05;;;;;;;11.63;7.70;;;;;;;;;;5073386;28;20177;-74
2022/03/27 04:58:31;;;;;;;11.93;7.60;;;;;;;;;;5073719;28;20177;-74
2022/03/27 05:00:57;;;;;;;11.17;7.47;;;;;;;;;;5074602;28;20294;-74
2022/03/27 05:03:23;;;;;;;11.83;7.37;;;;;;;;;;5056851;28;20184;-74
2022/03/27 05:05:49;;;;;;;12.03;7.40;;;;;;;;;;5073532;28;20184;-74
2022/03/27 05:08:15;;;;;;;13.23;7.87;;;;;;;;;;5056720;28;20184;-75
2022/03/27 05:10:41;;;;;;;12.33;7.70;;;;;;;;;;5056694;28;20245;-75
2022/03/27 05:13:08;;;;;;;10.63;7.13;;;;;;;;;;5072116;28;20196;-74
2022/03/27 05:15:34;;;;;;;13.17;7.77;;;;;;;;;;5073410;28;20188;-75
2022/03/27 05:18:00;;;;;;;11.73;8.17;;;;;;;;;;5074231;28;20637;-74
2022/03/27 05:20:28;;;;;;;13.27;8.43;;;;;;;;;;5056490;28;20234;-74
2022/03/27 05:22:54;;;;;;;13.53;8.40;;;;;;;;;;5073979;28;20204;-74
2022/03/27 05:25:20;;;;;;;13.47;8.47;;;;;;;;;;5072819;28;20186;-74
2022/03/27 05:27:48;;;;;;;12.83;8.60;;;;;;;;;;5072895;28;20175;-74
2022/03/27 05:30:18;;;;;;;12.53;8.17;;;;;;;;;;5056560;28;20185;-74
2022/03/27 05:32:45;;;;;;;11.17;8.00;;;;;;;;;;5073611;28;20210;-74
2022/03/27 05:35:11;;;;;;;12.70;8.00;;;;;;;;;;5074152;28;20189;-74
2022/03/27 05:37:41;;;;;;;10.83;7.07;;;;;;;;;;5072595;28;20233;-74
2022/03/27 05:40:08;;;;;;;11.57;7.70;;;;;;;;;;5072880;28;20657;-75
2022/03/27 05:42:35;;;;;;;11.47;7.63;;;;;;;;;;5055755;28;20299;-74
2022/03/27 05:45:01;;;;;;;12.80;7.47;;;;;;;;;;5072743;28;20177;-74
2022/03/27 05:47:28;;;;;;;12.93;7.30;;;;;;;;;;5072904;28;20180;-75
2022/03/27 05:49:54;;;;;;;10.70;7.03;;;;;;;;;;5056073;28;20180;-75
2022/03/27 05:52:21;;;;;;;10.63;7.10;;;;;;;;;;5072116;28;20189;-74
2022/03/27 05:54:47;;;;;;;10.67;7.30;;;;;;;;;;5055932;28;20184;-74
2022/03/27 05:57:14;;;;;;;9.67;6.80;;;;;;;;;;5072283;28;20173;-75
2022/03/27 05:59:40;;;;;;;9.90;6.97;;;;;;;;;;5055901;28;20177;-75
2022/03/27 06:02:06;;;;;;;12.87;7.53;;;;;;;;;;5071776;28;20212;-75
2022/03/27 06:04:32;;;;;;;14.70;7.70;;;;;;;;;;5055627;28;20173;-75
2022/03/27 06:06:58;;;;;;;9.60;6.87;;;;;;;;;;5055867;28;20181;-75
2022/03/27 06:09:24;;;;;;;14.03;7.43;;;;;;;;;;5055448;28;20302;-75
2022/03/27 06:11:50;;;;;;;15.60;8.37;;;;;;;;;;5071872;28;20215;-75
2022/03/27 06:14:16;;;;;;;12.40;8.43;;;;;;;;;;5071908;28;20181;-75
2022/03/27 06:16:42;;;;;;;11.93;8.73;;;;;;;;;;5072193;28;20184;-75
2022/03/27 06:19:08;;;;;;;13.10;9.23;;;;;;;;;;5055617;28;20188;-75
2022/03/27 06:21:36;;;;;;;13.90;8.07;;;;;;;;;;5055028;28;20212;-75
2022/03/27 06:24:03;;;;;;;14.27;8.40;;;;;;;;;;5071853;28;20173;-75
2022/03/27 06:26:29;;;;;;;11.27;8.07;;;;;;;;;;5055469;28;20659;-75
2022/03/27 06:28:55;;;;;;;10.67;7.60;;;;;;;;;;5071772;28;20179;-75
2022/03/27 06:31:21;;;;;;;11.17;7.47;;;;;;;;;;5054935;28;20235;-76
2022/03/27 06:33:47;;;;;;;12.27;7.17;;;;;;;;;;5055366;28;20552;-76
2022/03/27 06:36:13;;;;;;;9.33;7.10;;;;;;;;;;5055249;28;20255;-76
2022/03/27 06:38:39;;;;;;;9.10;7.20;;;;;;;;;;5071652;28;20182;-75
2022/03/27 06:41:07;;;;;;;10.43;7.73;;;;;;;;;;5066965;28;20203;-75
2022/03/27 06:43:36;;;;;;;11.33;7.87;;;;;;;;;;5071719;28;20183;-75
2022/03/27 06:46:02;;;;;;;12.20;7.77;;;;;;;;;;5072715;28;20173;-76
2022/03/27 06:48:28;;;;;;;11.87;8.27;;;;;;;;;;5071568;28;20180;-76
2022/03/27 06:50:54;;;;;;;12.27;8.53;;;;;;;;;;5071590;28;20219;-75
2022/03/27 06:53:24;;;;;;;11.47;8.27;;;;;;;;;;5071588;28;20172;-75
2022/03/27 06:55:50;;;;;;;12.13;9.07;;;;;;;;;;5055033;28;20258;-75
2022/03/27 06:58:16;;;;;;;13.50;9.27;;;;;;;;;;5071300;28;20187;-75
2022/03/27 07:03:27;;;;;;;14.53;10.03;;;;;;;;;;5072674;28;20189;-75
2022/03/27 07:05:53;;;;;;;13.37;9.77;;;;;;;;;;5054975;28;20185;-75
2022/03/27 07:08:20;;;;;;;13.67;9.57;;;;;;;;;;5071512;28;20175;-75
2022/03/27 07:10:47;;;;;;;13.67;9.80;;;;;;;;;;5071166;28;20179;-75
2022/03/27 07:13:14;;;;;;;16.00;11.13;;;;;;;;;;5054453;28;20600;-75
2022/03/27 07:15:41;;;;;;;15.93;10.43;;;;;;;;;;5071106;28;20181;-76
2022/03/27 07:18:07;;;;;;;17.87;11.27;;;;;;;;;;5071368;28;20182;-75
2022/03/27 07:20:35;;;;;;;16.27;11.63;;;;;;;;;;5071119;28;20207;-74
2022/03/27 07:23:03;;;;;;;21.13;11.83;;;;;;;;;;5070828;28;20602;-75
2022/03/27 07:25:30;;;;;;;15.33;10.97;;;;;;;;;;5070892;28;20174;-74
2022/03/27 07:27:56;;;;;;;15.67;11.23;;;;;;;;;;5054191;28;20192;-75
2022/03/27 07:30:23;;;;;;;17.67;11.87;;;;;;;;;;5072266;28;20176;-75
2022/03/27 07:32:52;;;;;;;16.40;12.13;;;;;;;;;;5053972;28;20225;-74
2022/03/27 07:35:18;;;;;;;16.53;11.90;;;;;;;;;;5054362;28;20668;-74
2022/03/27 07:37:44;;;;;;;20.53;12.30;;;;;;;;;;5074112;28;20241;-74
2022/03/27 07:40:11;;;;;;;16.83;12.37;;;;;;;;;;5075014;28;20212;-75
2022/03/27 07:42:38;;;;;;;18.47;11.73;;;;;;;;;;5058214;28;20199;-75
2022/03/27 07:45:05;;;;;;;18.03;11.80;;;;;;;;;;5075048;28;20198;-75
2022/03/27 07:47:31;;;;;;;17.27;12.33;;;;;;;;;;5058446;28;20178;-75
2022/03/27 07:49:58;;;;;;;17.80;12.27;;;;;;;;;;5058336;28;20174;-75
2022/03/27 07:52:24;;;;;;;18.67;12.40;;;;;;;;;;5057632;28;20198;-75
2022/03/27 07:54:50;;;;;;;16.93;11.70;;;;;;;;;;5075786;28;20177;-75
2022/03/27 07:57:17;;;;;;;18.07;11.80;;;;;;;;;;5074844;28;20172;-75
2022/03/27 07:59:43;;;;;;;18.03;12.20;;;;;;;;;;5074771;28;20179;-75
2022/03/27 08:02:09;;;;;;;17.77;12.10;;;;;;;;;;5074035;28;20211;-76
2022/03/27 08:04:35;;;;;;;17.37;11.90;;;;;;;;;;5057825;28;20184;-75
2022/03/27 08:07:02;;;;;;;17.33;12.00;;;;;;;;;;5057953;28;20181;-75
2022/03/27 08:09:28;;;;;;;19.33;12.50;;;;;;;;;;5074665;28;20200;-76
2022/03/27 08:11:55;;;;;;;17.10;11.90;;;;;;;;;;5074265;28;20206;-76
2022/03/27 08:14:22;;;;;;;141.90;47.33;;;;;;;;;;5057890;28;20184;-76
2022/03/27 08:16:48;;;;;;;17.57;12.20;;;;;;;;;;5074209;28;20267;-76
2022/03/27 08:19:14;;;;;;;16.90;10.53;;;;;;;;;;5074132;28;20206;-77
2022/03/27 08:21:40;;;;;;;14.47;10.60;;;;;;;;;;5057164;28;20215;-77
2022/03/27 08:24:06;;;;;;;18.17;11.53;;;;;;;;;;5074219;28;20179;-77
2022/03/27 08:29:17;;;;;;;16.27;11.00;;;;;;;;;;5074446;28;20203;-75
2022/03/27 08:31:43;;;;;;;15.67;11.47;;;;;;;;;;5080848;22;20283;-73
2022/03/27 08:34:09;;;;;;;19.63;12.17;;;;;;;;;;5074461;28;20180;-75
2022/03/27 08:36:35;;;;;;;14.83;11.07;;;;;;;;;;5056544;28;20267;-75
2022/03/27 08:39:01;;;;;;;17.73;12.53;;;;;;;;;;5056787;28;20190;-75
2022/03/27 08:41:28;;;;;;;16.90;11.80;;;;;;;;;;5052415;28;20239;-75
2022/03/27 08:44:03;;;;;;;14.57;11.67;;;;;;;;;;5055141;28;20177;-75
2022/03/27 08:46:30;;;;;;;15.80;11.93;;;;;;;;;;5038661;28;20203;-75
2022/03/27 08:49:16;;;;;;;14.93;11.53;;;;;;;;;;5054743;28;20578;-75
2022/03/27 08:51:48;;;;;;;16.30;11.80;;;;;;;;;;4987756;28;20205;-75
2022/03/27 08:54:16;;;;;;;17.83;12.60;;;;;;;;;;5054792;28;20158;-75
2022/03/27 08:56:45;;;;;;;16.57;11.73;;;;;;;;;;5036800;28;20597;-75
2022/03/27 08:59:11;;;;;;;17.90;11.43;;;;;;;;;;5053312;28;20174;-75
2022/03/27 09:01:38;;;;;;;16.50;11.43;;;;;;;;;;5053357;28;20209;-75
2022/03/27 09:04:05;;;;;;;13.10;10.20;;;;;;;;;;5053570;28;20180;-76
2022/03/27 09:06:31;;;;;;;14.53;10.77;;;;;;;;;;5054388;28;20233;-76
2022/03/27 09:08:57;;;;;;;15.37;10.73;;;;;;;;;;5053296;28;20174;-76
2022/03/27 09:11:23;;;;;;;15.03;10.37;;;;;;;;;;5036765;28;20181;-76
2022/03/27 09:13:51;;;;;;;14.67;10.50;;;;;;;;;;5054445;28;20166;-76
2022/03/27 09:16:17;;;;;;;12.87;9.53;;;;;;;;;;5053302;28;20174;-76
2022/03/27 09:18:55;;;;;;;12.50;9.47;;;;;;;;;;5053603;28;20649;-83
2022/03/27 09:21:22;;;;;;;15.40;11.50;;;;;;;;;;5052860;28;20201;-76
2022/03/27 09:23:56;;;;;;;27.60;20.50;;;;;;;;;;5036531;28;20178;-74
2022/03/27 09:26:22;;;;;;;31.03;24.93;;;;;;;;;;5036553;28;20608;-74
2022/03/27 09:28:49;;;;;;;21.10;17.47;;;;;;;;;;5053995;28;20169;-75
2022/03/27 09:31:19;;;;;;;16.60;13.83;;;;;;;;;;5053803;28;20180;-74
2022/03/27 09:33:48;;;;;;;16.03;11.43;;;;;;;;;;5052745;28;20169;-74
2022/03/27 09:36:25;;;;;;;18.43;13.60;;;;;;;;;;5052609;28;20272;-75
2022/03/27 09:38:57;;;;;;;10.40;8.17;;;;;;;;;;5052841;28;20181;-74
2022/03/27 09:41:51;;;;;;;10.20;7.60;;;;;;;;;;5053418;28;20197;-74
2022/03/27 09:44:19;;;;;;;14.57;13.00;;;;;;;;;;5031953;28;20269;-74
2022/03/27 09:46:51;;;;;;;9.87;7.90;;;;;;;;;;5036193;28;20174;-74
2022/03/27 09:49:18;;;;;;;9.50;6.87;;;;;;;;;;5052382;28;20173;-74
2022/03/27 09:51:54;;;;;;;8.37;7.53;;;;;;;;;;5052607;28;20202;-75
2022/03/27 09:57:27;;;;;;;6.87;5.60;;;;;;;;;;5053733;28;20248;-76
2022/03/27 09:59:54;;;;;;;6.70;5.63;;;;;;;;;;5051666;28;20185;-76
2022/03/27 10:02:28;;;;;;;24.27;17.27;;;;;;;;;;5052211;28;20213;-75
2022/03/27 10:05:01;;;;;;;19.37;13.40;;;;;;;;;;5052144;28;20228;-77
2022/03/27 10:07:32;;;;;;;17.43;11.97;;;;;;;;;;5052235;28;20604;-76
2022/03/27 10:09:58;;;;;;;8.97;6.50;;;;;;;;;;5053331;28;20162;-76
2022/03/27 10:12:29;;;;;;;5.47;4.43;;;;;;;;;;5035659;28;20260;-76
2022/03/27 10:15:03;;;;;;;7.33;6.10;;;;;;;;;;5053429;28;20173;-76
2022/03/27 10:17:31;;;;;;;9.40;6.20;;;;;;;;;;5051928;28;20230;-76
2022/03/27 10:20:00;;;;;;;6.63;5.73;;;;;;;;;;5035513;28;20539;-76
2022/03/27 10:22:29;;;;;;;7.50;5.33;;;;;;;;;;5035179;28;20205;-75
2022/03/27 10:24:56;;;;;;;6.90;5.47;;;;;;;;;;5035384;28;20300;-76
2022/03/27 10:27:22;;;;;;;7.27;5.87;;;;;;;;;;5051968;28;20256;-76
2022/03/27 10:29:48;;;;;;;6.83;5.67;;;;;;;;;;5052961;28;20165;-76
2022/03/27 10:32:15;;;;;;;8.07;5.77;;;;;;;;;;5035034;28;20710;-76
2022/03/27 10:34:44;;;;;;;7.53;5.80;;;;;;;;;;5035551;28;20251;-76
2022/03/27 10:37:17;;;;;;;7.37;5.90;;;;;;;;;;5053126;28;20205;-79
2022/03/27 10:39:52;;;;;;;7.77;5.90;;;;;;;;;;5053566;28;20154;-76
2022/03/27 10:42:25;;;;;;;6.90;5.50;;;;;;;;;;5063262;28;20216;-77
2022/03/27 10:44:57;;;;;;;7.30;5.70;;;;;;;;;;5055205;28;20181;-76
2022/03/27 10:47:24;;;;;;;6.97;6.00;;;;;;;;;;5072660;28;20205;-76
2022/03/27 10:50:05;;;;;;;8.93;5.23;;;;;;;;;;5054915;28;20326;-76
2022/03/27 10:52:31;;;;;;;7.00;5.90;;;;;;;;;;5054779;28;20189;-76
2022/03/27 10:54:59;;;;;;;7.37;5.90;;;;;;;;;;5054958;28;20184;-76
2022/03/27 10:57:35;;;;;;;8.03;5.97;;;;;;;;;;5054909;28;20169;-76
2022/03/27 11:00:01;;;;;;;9.03;6.10;;;;;;;;;;5054643;28;20202;-76
2022/03/27 11:02:46;;;;;;;7.10;5.77;;;;;;;;;;5037803;28;20266;-76
2022/03/27 11:05:36;;;;;;;8.83;7.00;;;;;;;;;;5072595;28;20176;-76
2022/03/27 11:08:17;;;;;;;7.73;5.57;;;;;;;;;;5072534;28;20210;-76
2022/03/27 11:10:51;;;;;;;7.07;4.90;;;;;;;;;;5054587;28;20234;-77
2022/03/27 11:13:23;;;;;;;7.03;5.60;;;;;;;;;;5058514;28;20250;-76
2022/03/27 11:16:08;;;;;;;5.60;4.70;;;;;;;;;;5058714;28;20176;-76
2022/03/27 11:18:35;;;;;;;6.00;4.77;;;;;;;;;;5058885;28;20181;-76
2022/03/27 11:21:01;;;;;;;6.13;5.27;;;;;;;;;;5042310;28;20232;-76
2022/03/27 11:23:28;;;;;;;5.90;5.03;;;;;;;;;;5041961;28;20199;-76
2022/03/27 11:25:55;;;;;;;5.43;4.57;;;;;;;;;;5058380;28;20262;-76
2022/03/27 11:28:21;;;;;;;5.53;4.60;;;;;;;;;;5076325;28;20169;-76
2022/03/27 11:30:50;;;;;;;6.93;3.90;;;;;;;;;;5058720;28;20173;-76
2022/03/27 11:33:20;;;;;;;5.40;4.27;;;;;;;;;;5058253;28;20232;-76
2022/03/27 11:36:01;;;;;;;5.10;4.10;;;;;;;;;;5042122;28;20309;-76
2022/03/27 11:38:29;;;;;;;6.47;4.40;;;;;;;;;;5058209;28;20173;-76
2022/03/27 11:40:55;;;;;;;5.57;4.27;;;;;;;;;;5058096;28;20727;-76
2022/03/27 11:43:32;;;;;;;5.20;4.20;;;;;;;;;;5075769;28;20203;-76
2022/03/27 11:45:58;;;;;;;6.17;4.50;;;;;;;;;;5041682;28;20564;-77
2022/03/27 11:48:25;;;;;;;5.77;4.47;;;;;;;;;;5076494;28;20169;-81
2022/03/27 11:50:54;;;;;;;4.63;4.10;;;;;;;;;;5058346;28;20192;-79
2022/03/27 11:53:33;;;;;;;4.30;3.87;;;;;;;;;;5075912;28;20207;-77
2022/03/27 11:56:07;;;;;;;5.20;4.20;;;;;;;;;;5058033;28;20177;-77
2022/03/27 11:58:33;;;;;;;4.97;4.30;;;;;;;;;;5058150;28;20181;-78
2022/03/27 12:01:03;;;;;;;4.93;4.43;;;;;;;;;;5075599;28;20652;-77
2022/03/27 12:03:29;;;;;;;5.30;4.37;;;;;;;;;;5076160;28;20189;-77
2022/03/27 12:06:03;;;;;;;7.50;4.80;;;;;;;;;;5042233;28;20177;-77
2022/03/27 12:08:36;;;;;;;4.87;3.80;;;;;;;;;;5058121;28;20174;-76
2022/03/27 12:11:06;;;;;;;4.17;3.60;;;;;;;;;;5057922;28;20191;-76
2022/03/27 12:13:50;;;;;;;4.03;3.60;;;;;;;;;;5041639;28;20197;-76
2022/03/27 12:16:21;;;;;;;4.17;3.70;;;;;;;;;;5075865;28;20603;-76
2022/03/27 12:18:47;;;;;;;4.70;3.60;;;;;;;;;;5041108;28;20556;-76
2022/03/27 12:21:14;;;;;;;3.93;3.53;;;;;;;;;;5075031;28;20654;-76
2022/03/27 12:23:40;;;;;;;4.67;3.90;;;;;;;;;;5057262;28;20526;-76
2022/03/27 12:31:53;;;;;;;4.97;3.93;;;;;;;;;;5075051;28;20235;-75
2022/03/27 12:34:20;;;;;;;4.93;3.77;;;;;;;;;;5057262;28;20584;-75
2022/03/27 12:37:09;;;;;;;5.77;4.40;;;;;;;;;;5048338;28;20184;-76
2022/03/27 12:39:40;;;;;;;5.23;3.90;;;;;;;;;;5037336;28;20227;-76
2022/03/27 12:42:06;;;;;;;5.87;4.00;;;;;;;;;;5049729;28;20259;-76
2022/03/27 12:44:49;;;;;;;4.07;3.67;;;;;;;;;;5040793;28;20181;-78
2022/03/27 12:47:15;;;;;;;4.77;4.27;;;;;;;;;;5057325;28;20268;-76
2022/03/27 12:49:47;;;;;;;4.63;3.93;;;;;;;;;;5057143;28;20173;-76
2022/03/27 12:52:14;;;;;;;4.50;3.70;;;;;;;;;;5056579;28;20208;-76
2022/03/27 12:54:57;;;;;;;5.27;4.03;;;;;;;;;;5056971;28;20188;-76
2022/03/27 12:57:23;;;;;;;4.57;3.80;;;;;;;;;;5074702;28;20169;-76
2022/03/27 12:59:49;;;;;;;5.50;3.73;;;;;;;;;;5057140;28;20209;-76
2022/03/27 13:02:26;;;;;;;4.70;4.00;;;;;;;;;;5040152;28;20633;-76
2022/03/27 13:05:00;;;;;;;6.03;3.80;;;;;;;;;;5056591;28;20179;-75
2022/03/27 13:07:45;;;;;;;5.43;3.40;;;;;;;;;;5040333;28;20180;-76
2022/03/27 13:10:11;;;;;;;5.30;4.10;;;;;;;;;;5074447;28;20264;-76
2022/03/27 13:12:37;;;;;;;4.23;3.83;;;;;;;;;;5039942;28;20299;-77
2022/03/27 13:15:04;;;;;;;4.70;3.60;;;;;;;;;;5039953;28;20215;-76
2022/03/27 13:17:30;;;;;;;4.33;3.40;;;;;;;;;;5056383;28;20222;-76
2022/03/27 13:19:56;;;;;;;5.10;3.70;;;;;;;;;;5039121;28;20181;-75
2022/03/27 13:22:22;;;;;;;5.47;4.17;;;;;;;;;;5056069;28;20221;-75
2022/03/27 13:24:51;;;;;;;4.10;3.70;;;;;;;;;;5040107;28;20174;-76
2022/03/27 13:27:17;;;;;;;5.23;3.83;;;;;;;;;;5040184;28;20184;-75
2022/03/27 13:29:43;;;;;;;4.45;4.00;;;;;;;;;;5056493;28;20181;-75
2022/03/27 13:32:09;;;;;;;4.35;3.53;;;;;;;;;;5055765;28;20209;-76
2022/03/27 13:34:35;;;;;;;5.13;3.83;;;;;;;;;;5055019;28;20628;-75
2022/03/27 13:37:01;;;;;;;4.35;3.95;;;;;;;;;;5039353;28;20181;-75
2022/03/27 13:39:28;;;;;;;3.80;3.50;;;;;;;;;;5056126;28;20180;-75
2022/03/27 13:44:39;;;;;;;4.97;4.00;;;;;;;;;;5058853;28;20171;-75
2022/03/27 13:47:06;;;;;;;4.50;4.10;;;;;;;;;;5055733;28;20173;-75
2022/03/27 13:49:33;;;;;;;5.00;4.32;;;;;;;;;;5055500;28;20176;-75
2022/03/27 13:51:59;;;;;;;4.82;4.05;;;;;;;;;;5055055;28;20256;-75
2022/03/27 13:54:25;;;;;;;5.07;4.07;;;;;;;;;;5055384;28;20184;-77
2022/03/27 13:56:51;;;;;;;4.65;4.13;;;;;;;;;;5055650;28;20173;-75
2022/03/27 13:59:18;;;;;;;4.55;4.10;;;;;;;;;;5073466;28;20201;-75
2022/03/27 14:01:44;;;;;;;5.60;3.78;;;;;;;;;;5038684;28;20307;-75
2022/03/27 14:04:12;;;;;;;5.03;4.15;;;;;;;;;;5055730;28;20172;-75
2022/03/27 14:06:39;;;;;;;4.47;3.85;;;;;;;;;;5038966;28;20176;-75
2022/03/27 14:09:06;;;;;;;4.93;4.38;;;;;;;;;;5055546;28;20180;-75
2022/03/27 14:11:32;;;;;;;5.72;4.25;;;;;;;;;;5055440;28;20200;-75
2022/03/27 14:13:58;;;;;;;4.57;4.10;;;;;;;;;;5055575;28;20272;-75
2022/03/27 14:16:25;;;;;;;5.07;4.57;;;;;;;;;;5055527;28;20184;-76
2022/03/27 14:18:52;;;;;;;5.57;4.28;;;;;;;;;;5072889;28;20230;-76
2022/03/27 14:21:18;;;;;;;5.10;4.57;;;;;;;;;;5038338;28;20200;-75
2022/03/27 14:23:45;;;;;;;5.07;4.38;;;;;;;;;;5055564;28;20220;-76
2022/03/27 14:26:11;;;;;;;4.95;4.43;;;;;;;;;;5073071;28;20169;-76
2022/03/27 14:28:38;;;;;;;4.32;3.92;;;;;;;;;;5038525;28;20173;-76
2022/03/27 14:31:04;;;;;;;4.50;3.95;;;;;;;;;;5072724;28;20165;-76
2022/03/27 14:33:30;;;;;;;4.35;3.95;;;;;;;;;;5061794;22;20217;-75
2022/03/27 14:36:00;;;;;;;4.40;4.00;;;;;;;;;;5052601;28;20670;-75
2022/03/27 14:38:26;;;;;;;4.85;4.13;;;;;;;;;;5055056;28;20546;-75
2022/03/27 14:40:55;;;;;;;5.20;4.38;;;;;;;;;;5054543;28;20192;-75
2022/03/27 14:43:22;;;;;;;4.90;4.40;;;;;;;;;;5053839;28;20193;-75
2022/03/27 14:45:50;;;;;;;4.38;3.97;;;;;;;;;;5051864;28;20234;-75
2022/03/27 14:48:18;;;;;;;4.60;3.80;;;;;;;;;;5053106;28;20215;-75
2022/03/27 14:50:45;;;;;;;5.05;4.22;;;;;;;;;;5038244;28;20209;-75
2022/03/27 14:53:11;;;;;;;6.50;4.10;;;;;;;;;;5053415;28;20193;-75
2022/03/27 14:58:22;;;;;;;5.05;4.55;;;;;;;;;;5071650;28;20670;-75
2022/03/27 15:00:49;;;;;;;5.07;4.05;;;;;;;;;;5071901;28;20223;-75
2022/03/27 15:03:16;;;;;;;5.75;3.97;;;;;;;;;;5037614;28;20204;-75